Lone Rock, Wisconsin
Current Conditions -  °F | °C
As of 6:56 PM on Monday 20 Oct 2014 (Local Time) from KLNR Reporting Station
Clear Clear  
Wind Chill: 56°   Ceiling: Unl
Heat Index: 56°   Visibility: 10mi
Dew Point: 39°   Wind: 6mph
Humidity: 53%   Direction: 20°NNE
Pressure: 29.99"   Gusts: NA
Location:  43.18°N, 90.2°W
Report Text: KLNR 202356Z AUTO 02005KT 10SM CLR 13/04 A2999 RMK AO2 SLP153 60000 T01330039 10200 20133 53024
Loading
Personal Weather Stations






























Interactive Weather Map
Tropical Storm Tracking
New forecast layout! Learn more

10-Day Weather Forecast

Advertisements
Track Severe Weather on mobile